Forside
METAR-TAF:

METAR-TAF

Lufthavne :

Hancock, Michigan, USA

Breddekreds: 47-10-06N, længdekreds: 088-29-20W, højde: 334 m

Aktuelle vejr

Denne rapport blev lavet for 17 minutter siden, kl. 19:53 UTC
Vind 11 kt fra vestsydvest
Temperatur 7°C
Fugtighed 33%
Tryk 1010 hPa
Sigt: 16.1 km
skyfri

METAR: KCMX 221953Z AUTO 24011KT 10SM CLR 07/M08 A2983 RMK AO2 SLP111 T00721083

Tid: 15:10 (20:10 UTC)

Vejrudsigter

Denne rapport blev lavet for 2 timer og 34 minutter siden, kl. 17:36 UTC
Foreløbig gælder fra 22 på 18 UTC til 23 på 18 UTC
Vind 11 kt fra vest
Sigt: 10 km
skyfri
Fra 23 på 0500 UTC
Vind 8 kt fra vest
Sigt: 10 km
skyfri
Fra 23 på 1000 UTC
Vind 6 kt fra vestsydvest
Sigt: 8.0 km
Spredte skyer i en højde af 200 ft
dis
Fra 23 på 1300 UTC
Vind 7 kt fra sydvest
Sigt: 4.8 km
Brudte skyer i en højde af 200 ft
dis

TAF: KCMX 221736Z 2218/2318 26011KT P6SM SKC FM230500 27008KT P6SM SKC FM231000 24006KT 5SM BR SCT002 FM231300 23007KT 3SM BR BKN002

Vejrobservationer og prognoser fra mere end 4000 lufthavne (METAR og TAF).

De gule og røde prikker repræsenterer de meteorologiske stationer.

Flyt musen over at se navnet på stationen.

Så klik over at se vejr observationer og prognoser.

At skifte det kort: Klik på de grønne knapper med et sort kors for at zoome ind; på den grønne knap med en bindestreg for at zoome ud; eller på de grønne pile for tilstødende kort.


METAR-TAF: